createdAt,value
2022-08-29T00:00:26.746Z,1.02
2022-08-29T00:02:56.712Z,1.20
2022-08-29T00:05:30.415Z,1.05
2022-08-29T00:07:58.703Z,0.95
2022-08-29T00:10:25.729Z,1.05
2022-08-29T00:12:52.698Z,1.00
2022-08-29T00:15:20.395Z,1.27
2022-08-29T00:17:47.475Z,1.40
2022-08-29T00:20:18.583Z,1.60
2022-08-29T00:22:45.269Z,1.35
2022-08-29T00:25:14.826Z,1.50
2022-08-29T00:27:41.668Z,1.40
2022-08-29T00:30:13.012Z,1.20
2022-08-29T00:32:40.279Z,1.30
2022-08-29T00:35:28.858Z,1.90
2022-08-29T00:37:56.374Z,1.15
2022-08-29T00:40:27.619Z,1.95
2022-08-29T00:42:54.849Z,1.20
2022-08-29T00:45:22.430Z,1.73
2022-08-29T00:48:15.886Z,1.05
2022-08-29T00:50:48.111Z,1.20
2022-08-29T00:53:19.860Z,1.63
2022-08-29T00:55:48.273Z,1.40
2022-08-29T00:58:31.590Z,1.35
2022-08-29T01:00:58.683Z,1.40
2022-08-29T01:03:26.552Z,1.33
2022-08-29T01:05:53.455Z,1.52
2022-08-29T01:08:20.100Z,1.42
2022-08-29T01:11:06.244Z,1.33
2022-08-29T01:13:37.229Z,1.23
2022-08-29T01:16:05.570Z,1.65
2022-08-29T01:18:35.309Z,1.30
2022-08-29T01:21:24.487Z,1.05
2022-08-29T01:23:54.023Z,1.15
2022-08-29T01:26:22.479Z,1.45
2022-08-29T01:28:52.178Z,1.20
2022-08-29T01:31:37.789Z,1.80
2022-08-29T01:34:18.789Z,1.50
2022-08-29T01:36:50.487Z,1.20
2022-08-29T01:39:23.011Z,1.67
2022-08-29T01:41:50.301Z,1.38
2022-08-29T01:44:20.342Z,1.25
2022-08-29T01:46:57.873Z,1.10
2022-08-29T01:49:27.625Z,1.23
2022-08-29T01:51:54.428Z,1.15
2022-08-29T01:54:21.948Z,1.52
2022-08-29T01:56:52.787Z,0.95
2022-08-29T01:59:22.523Z,1.08
2022-08-29T02:02:29.992Z,1.20
2022-08-29T02:04:59.596Z,1.25
2022-08-29T02:07:27.002Z,1.30
2022-08-29T02:09:53.996Z,1.48
2022-08-29T02:12:21.281Z,1.30
2022-08-29T02:14:48.455Z,1.48
2022-08-29T02:17:15.078Z,2.17
2022-08-29T02:19:42.047Z,1.20
2022-08-29T02:22:09.315Z,1.70
2022-08-29T02:24:36.074Z,1.13
2022-08-29T02:27:03.031Z,1.38
2022-08-29T02:29:30.908Z,1.83
2022-08-29T02:32:07.194Z,1.45
2022-08-29T02:34:34.724Z,1.38
2022-08-29T02:37:01.458Z,1.30
2022-08-29T02:39:28.071Z,1.23
2022-08-29T02:41:54.663Z,1.48
2022-08-29T02:44:21.257Z,1.13
2022-08-29T02:46:48.942Z,1.52
2022-08-29T02:49:15.850Z,1.42
2022-08-29T02:51:42.616Z,1.70
2022-08-29T02:54:09.717Z,1.58
2022-08-29T02:56:36.815Z,1.40
2022-08-29T02:59:04.056Z,1.80
2022-08-29T03:01:31.426Z,1.88
2022-08-29T03:03:58.118Z,1.65
2022-08-29T03:06:24.763Z,1.40
2022-08-29T03:08:51.700Z,1.38
2022-08-29T03:11:21.281Z,1.30
2022-08-29T03:13:47.875Z,1.63
2022-08-29T03:16:14.929Z,1.40
2022-08-29T03:18:41.895Z,1.20
2022-08-29T03:21:17.138Z,1.55
2022-08-29T03:26:10.191Z,1.55
2022-08-29T03:28:36.795Z,1.50
2022-08-29T03:31:03.875Z,1.40
2022-08-29T03:33:30.540Z,1.52
2022-08-29T03:35:57.144Z,1.20
2022-08-29T03:38:23.784Z,1.40
2022-08-29T03:40:50.400Z,1.63
2022-08-29T03:43:17.002Z,1.60
2022-08-29T03:45:44.863Z,1.40
2022-08-29T03:48:11.528Z,1.50
2022-08-29T03:50:38.138Z,1.30
2022-08-29T03:53:04.686Z,1.58
2022-08-29T03:55:31.339Z,1.77
2022-08-29T03:57:57.934Z,1.40
2022-08-29T04:00:24.962Z,1.40
2022-08-29T04:02:55.256Z,1.40
2022-08-29T04:05:22.091Z,1.40
2022-08-29T04:07:50.743Z,1.35
2022-08-29T04:10:39.636Z,1.25
2022-08-29T04:13:08.210Z,1.40
2022-08-29T04:15:36.019Z,1.52
2022-08-29T04:18:04.643Z,1.70
2022-08-29T04:20:37.365Z,1.55
2022-08-29T04:23:06.079Z,1.27
2022-08-29T04:25:37.468Z,1.30
2022-08-29T04:28:06.339Z,1.15
2022-08-29T04:30:33.664Z,1.90
2022-08-29T04:33:00.984Z,1.15
2022-08-29T04:35:27.603Z,1.10
2022-08-29T04:37:54.211Z,1.67
2022-08-29T04:40:22.280Z,1.40
2022-08-29T04:42:49.894Z,1.10
2022-08-29T04:45:20.165Z,1.40
2022-08-29T04:47:46.754Z,1.33
2022-08-29T04:50:18.242Z,1.38
2022-08-29T04:52:45.397Z,1.20
2022-08-29T04:55:13.207Z,1.20
2022-08-29T04:57:40.874Z,1.40
2022-08-29T05:00:13.075Z,1.13
2022-08-29T05:02:42.018Z,1.20
2022-08-29T05:05:12.033Z,1.00
2022-08-29T05:07:38.777Z,1.48
2022-08-29T05:10:09.402Z,1.27
2022-08-29T05:12:36.305Z,1.58
2022-08-29T05:15:04.633Z,1.30
2022-08-29T05:17:31.479Z,1.13
2022-08-29T05:19:58.131Z,1.35
2022-08-29T05:22:25.240Z,1.30
2022-08-29T05:24:51.837Z,1.20
2022-08-29T05:27:22.087Z,1.10
2022-08-29T05:29:51.354Z,1.42
2022-08-29T05:32:19.656Z,1.27
2022-08-29T05:34:47.998Z,1.38
2022-08-29T05:37:19.376Z,1.65
2022-08-29T05:39:47.361Z,1.20
2022-08-29T05:42:14.639Z,1.50
2022-08-29T05:44:41.182Z,1.58
2022-08-29T05:47:10.075Z,1.35
2022-08-29T05:49:41.271Z,1.30
2022-08-29T05:52:08.526Z,1.40
2022-08-29T05:54:38.974Z,1.08
2022-08-29T05:57:07.113Z,1.38
2022-08-29T05:59:34.875Z,1.27
2022-08-29T06:02:01.666Z,1.48
2022-08-29T06:04:28.735Z,1.10
2022-08-29T06:06:55.383Z,1.00
2022-08-29T06:09:22.240Z,1.33
2022-08-29T06:11:51.431Z,1.33
2022-08-29T06:14:17.992Z,1.15
2022-08-29T06:16:44.799Z,1.00
2022-08-29T06:19:12.102Z,1.08
2022-08-29T06:21:39.149Z,0.90
2022-08-29T06:24:06.341Z,1.25
2022-08-29T06:26:33.513Z,1.17
2022-08-29T06:29:00.210Z,1.08
2022-08-29T06:31:29.563Z,0.98
2022-08-29T06:34:01.426Z,0.98
2022-08-29T06:36:29.759Z,1.10
2022-08-29T06:39:00.405Z,0.88
2022-08-29T06:41:28.430Z,1.00
2022-08-29T06:43:56.901Z,0.95
2022-08-29T06:46:33.065Z,0.75
2022-08-29T06:49:01.671Z,1.00
2022-08-29T06:51:32.972Z,0.90
2022-08-29T06:54:01.542Z,1.05
2022-08-29T06:56:29.528Z,0.80
2022-08-29T06:58:56.275Z,1.10
2022-08-29T07:01:24.150Z,1.13
2022-08-29T07:03:53.859Z,1.00
2022-08-29T07:06:20.701Z,0.85
2022-08-29T07:08:55.713Z,0.77
2022-08-29T07:11:24.690Z,1.45
2022-08-29T07:13:51.302Z,1.08
2022-08-29T07:16:18.956Z,0.85
2022-08-29T07:18:46.676Z,1.08
2022-08-29T07:21:20.369Z,1.10
2022-08-29T07:23:48.418Z,1.27
2022-08-29T07:26:22.011Z,1.42
2022-08-29T07:28:51.146Z,1.10
2022-08-29T07:31:18.575Z,1.23
2022-08-29T07:33:45.269Z,1.33
2022-08-29T07:36:12.318Z,1.20
2022-08-29T07:38:39.568Z,1.00
2022-08-29T07:41:10.376Z,1.25
2022-08-29T07:43:37.878Z,1.17
2022-08-29T07:46:13.135Z,1.20
2022-08-29T07:51:12.717Z,0.68
2022-08-29T07:53:40.758Z,1.00
2022-08-29T07:56:13.206Z,0.80
2022-08-29T07:58:40.751Z,0.80
2022-08-29T08:01:09.780Z,0.65
2022-08-29T08:03:42.530Z,1.33
2022-08-29T08:06:10.371Z,1.10
2022-08-29T08:08:39.183Z,1.10
2022-08-29T08:11:08.643Z,0.95
2022-08-29T08:13:36.921Z,1.10
2022-08-29T08:16:09.232Z,1.00
2022-08-29T08:18:37.503Z,0.75
2022-08-29T08:21:04.610Z,1.08
2022-08-29T08:23:31.645Z,0.85
2022-08-29T08:25:58.369Z,0.82
2022-08-29T08:28:25.045Z,1.05
2022-08-29T08:30:51.768Z,1.45
2022-08-29T08:33:18.413Z,0.75
2022-08-29T08:35:46.956Z,0.60
2022-08-29T08:38:14.135Z,1.10
2022-08-29T08:40:50.647Z,1.00
2022-08-29T08:43:26.881Z,1.17
2022-08-29T08:45:55.426Z,1.00
2022-08-29T08:48:26.063Z,1.00
2022-08-29T08:51:03.692Z,1.15
2022-08-29T08:53:36.223Z,1.13
2022-08-29T08:56:11.503Z,1.70
2022-08-29T08:59:16.401Z,0.90
2022-08-29T09:01:58.577Z,1.05
2022-08-29T09:04:49.158Z,0.88
2022-08-29T09:07:22.978Z,0.60
2022-08-29T09:09:58.428Z,0.98
2022-08-29T09:12:32.925Z,1.00
2022-08-29T09:15:08.223Z,0.90
2022-08-29T09:17:46.068Z,0.95
2022-08-29T09:20:18.229Z,1.13
2022-08-29T09:23:10.762Z,0.60
2022-08-29T09:25:37.430Z,0.85
2022-08-29T09:28:08.570Z,0.90
2022-08-29T09:30:36.776Z,0.85
2022-08-29T09:33:09.248Z,0.60
2022-08-29T09:35:42.670Z,0.70
2022-08-29T09:38:18.369Z,0.80
2022-08-29T09:40:50.592Z,1.17
2022-08-29T09:43:38.341Z,1.10
2022-08-29T09:46:10.842Z,0.68
2022-08-29T09:48:43.490Z,0.73
2022-08-29T09:51:11.719Z,0.82
2022-08-29T09:53:38.842Z,1.00
2022-08-29T09:56:08.347Z,0.90
2022-08-29T09:58:40.509Z,0.70
2022-08-29T10:01:18.313Z,0.82
2022-08-29T10:03:56.224Z,0.80
2022-08-29T10:06:39.966Z,1.02
2022-08-29T10:09:26.412Z,1.02
2022-08-29T10:12:03.649Z,0.77
2022-08-29T10:14:41.268Z,1.05
2022-08-29T10:17:42.102Z,1.08
2022-08-29T10:20:11.837Z,0.70
2022-08-29T10:22:46.962Z,0.77
2022-08-29T10:27:49.998Z,0.80
2022-08-29T10:30:19.787Z,1.00
2022-08-29T10:33:11.041Z,0.90
2022-08-29T10:35:40.577Z,0.80
2022-08-29T10:38:16.175Z,1.20
2022-08-29T10:40:49.627Z,0.80
2022-08-29T10:43:40.364Z,1.20
2022-08-29T10:46:10.025Z,1.38
2022-08-29T10:48:49.134Z,1.00
2022-08-29T10:51:26.872Z,0.75
2022-08-29T10:54:06.926Z,0.85
2022-08-29T10:56:40.526Z,0.82
2022-08-29T10:59:18.600Z,0.60
2022-08-29T11:01:48.244Z,0.75
2022-08-29T11:04:22.608Z,1.52
2022-08-29T11:07:02.343Z,0.90
2022-08-29T11:09:34.025Z,0.60
2022-08-29T11:12:45.257Z,1.13
2022-08-29T11:15:18.216Z,0.98
2022-08-29T11:17:53.902Z,0.90
2022-08-29T11:20:30.729Z,0.80
2022-08-29T11:23:08.129Z,0.82
2022-08-29T11:25:36.069Z,1.05
2022-08-29T11:28:24.005Z,0.80
2022-08-29T11:30:53.296Z,0.73
2022-08-29T11:33:26.009Z,0.93
2022-08-29T11:36:26.629Z,1.08
2022-08-29T11:39:24.587Z,1.08
2022-08-29T11:41:58.641Z,0.93
2022-08-29T11:44:37.181Z,0.85
2022-08-29T11:47:40.865Z,1.05
2022-08-29T11:50:17.003Z,0.70
2022-08-29T11:52:52.207Z,0.70
2022-08-29T11:55:24.002Z,0.55
2022-08-29T11:58:01.759Z,0.63
2022-08-29T12:00:39.142Z,1.02
2022-08-29T12:06:15.923Z,0.60
2022-08-29T12:08:48.487Z,0.77
2022-08-29T12:11:15.087Z,0.50
2022-08-29T12:13:51.018Z,0.80
2022-08-29T12:16:23.415Z,0.55
2022-08-29T12:18:55.803Z,0.95
2022-08-29T12:21:40.429Z,0.98
2022-08-29T12:24:28.051Z,1.00
2022-08-29T12:26:55.215Z,0.70
2022-08-29T12:29:27.739Z,1.10
2022-08-29T12:32:22.989Z,0.80
2022-08-29T12:34:57.752Z,0.82
2022-08-29T12:37:43.383Z,0.50
2022-08-29T12:40:12.883Z,0.57
2022-08-29T12:42:55.543Z,0.75
2022-08-29T12:45:27.265Z,0.82
2022-08-29T12:48:02.894Z,0.75
2022-08-29T12:50:35.942Z,0.70
2022-08-29T12:53:23.529Z,1.23
2022-08-29T12:55:53.730Z,0.52
2022-08-29T12:58:40.041Z,0.90
2022-08-29T13:01:25.740Z,0.70
2022-08-29T13:04:02.116Z,0.63
2022-08-29T13:06:29.211Z,0.60
2022-08-29T13:08:55.824Z,0.70
2022-08-29T13:11:26.318Z,0.77
2022-08-29T13:14:11.403Z,0.95
2022-08-29T13:16:39.298Z,0.60
2022-08-29T13:19:19.315Z,0.80
2022-08-29T13:21:46.007Z,0.57
2022-08-29T13:24:19.463Z,0.65
2022-08-29T13:27:05.654Z,0.70
2022-08-29T13:29:41.155Z,0.57
2022-08-29T13:32:13.815Z,0.68
2022-08-29T13:34:58.963Z,0.77
2022-08-29T13:37:32.187Z,0.70
2022-08-29T13:40:31.272Z,0.73
2022-08-29T13:43:00.140Z,0.85
2022-08-29T13:45:27.558Z,0.40
2022-08-29T13:48:15.853Z,0.65
2022-08-29T13:50:42.473Z,1.05
2022-08-29T13:53:09.259Z,0.50
2022-08-29T13:55:36.231Z,0.80
2022-08-29T13:58:03.778Z,0.30
2022-08-29T14:00:35.055Z,0.70
2022-08-29T14:03:03.829Z,0.57
2022-08-29T14:05:31.026Z,0.47
2022-08-29T14:07:57.638Z,0.20
2022-08-29T14:10:24.419Z,0.63
2022-08-29T14:12:51.060Z,0.60
2022-08-29T14:15:18.249Z,0.68
2022-08-29T14:17:46.677Z,0.40
2022-08-29T14:20:14.586Z,0.80
2022-08-29T14:22:41.378Z,0.35
2022-08-29T14:25:10.110Z,0.50
2022-08-29T14:27:37.170Z,0.50
2022-08-29T14:30:06.217Z,0.40
2022-08-29T14:32:33.129Z,0.60
2022-08-29T14:34:59.775Z,0.50
2022-08-29T14:37:26.399Z,0.40
2022-08-29T14:39:52.990Z,0.60
2022-08-29T14:42:19.798Z,0.50
2022-08-29T14:44:46.495Z,0.55
2022-08-29T14:47:13.469Z,0.63
2022-08-29T14:49:40.790Z,0.40
2022-08-29T14:52:07.493Z,0.35
2022-08-29T14:54:34.422Z,0.55
2022-08-29T14:57:01.152Z,0.50
2022-08-29T14:59:28.124Z,0.35
2022-08-29T15:01:56.184Z,0.63
2022-08-29T15:04:35.713Z,0.38
2022-08-29T15:07:05.753Z,0.40
2022-08-29T15:09:32.806Z,0.75
2022-08-29T15:11:59.676Z,0.80
2022-08-29T15:14:26.283Z,0.70
2022-08-29T15:16:52.960Z,0.45
2022-08-29T15:22:07.942Z,0.68
2022-08-29T15:24:34.893Z,0.47
2022-08-29T15:27:02.018Z,0.73
2022-08-29T15:29:28.928Z,0.40
2022-08-29T15:31:57.444Z,0.55
2022-08-29T15:34:28.997Z,0.47
2022-08-29T15:36:56.787Z,0.40
2022-08-29T15:39:27.159Z,0.60
2022-08-29T15:41:55.577Z,0.50
2022-08-29T15:44:22.315Z,0.50
2022-08-29T15:46:50.319Z,0.52
2022-08-29T15:49:19.663Z,0.63
2022-08-29T15:51:47.040Z,0.65
2022-08-29T15:54:14.735Z,0.45
2022-08-29T15:56:42.591Z,0.45
2022-08-29T15:59:12.029Z,0.30
2022-08-29T16:01:42.609Z,0.30
2022-08-29T16:04:11.395Z,0.45
2022-08-29T16:06:38.897Z,0.60
2022-08-29T16:09:14.912Z,0.60
2022-08-29T16:11:44.847Z,1.38
2022-08-29T16:14:57.609Z,0.73
2022-08-29T16:16:59.138Z,0.40
2022-08-29T16:19:25.710Z,0.38
2022-08-29T16:21:52.799Z,0.35
2022-08-29T16:24:21.740Z,0.28
2022-08-29T16:26:48.768Z,0.20
2022-08-29T16:29:15.381Z,0.28
2022-08-29T16:31:52.195Z,0.57
2022-08-29T16:34:18.805Z,0.28
2022-08-29T16:36:45.358Z,0.47
2022-08-29T16:39:13.374Z,0.28
2022-08-29T16:41:39.999Z,0.55
2022-08-29T16:44:07.190Z,0.50
2022-08-29T16:46:34.172Z,0.57
2022-08-29T16:49:00.815Z,0.60
2022-08-29T16:51:28.181Z,0.22
2022-08-29T16:53:54.843Z,0.30
2022-08-29T16:56:21.491Z,0.20
2022-08-29T16:59:04.596Z,0.30
2022-08-29T17:01:33.349Z,0.20
2022-08-29T17:04:02.089Z,0.63
2022-08-29T17:06:29.661Z,0.50
2022-08-29T17:08:57.013Z,0.22
2022-08-29T17:11:24.126Z,0.35
2022-08-29T17:13:51.245Z,0.30
2022-08-29T17:16:18.924Z,0.40
2022-08-29T17:18:45.759Z,0.15
2022-08-29T17:21:12.462Z,0.30
2022-08-29T17:23:40.010Z,0.90
2022-08-29T17:26:10.210Z,0.10
2022-08-29T17:28:38.467Z,0.30
2022-08-29T17:31:05.820Z,0.20
2022-08-29T17:33:33.039Z,0.32
2022-08-29T17:36:00.221Z,0.20
2022-08-29T17:38:28.354Z,0.20
2022-08-29T17:40:58.188Z,0.20
2022-08-29T17:43:26.296Z,0.30
2022-08-29T17:45:53.300Z,0.20
2022-08-29T17:48:20.371Z,0.70
2022-08-29T17:50:48.314Z,0.25
2022-08-29T17:53:16.077Z,0.30
2022-08-29T17:55:42.816Z,0.30
2022-08-29T17:58:09.406Z,0.50
2022-08-29T18:00:36.518Z,0.13
2022-08-29T18:03:04.070Z,0.85
2022-08-29T18:05:30.772Z,0.35
2022-08-29T18:07:57.387Z,0.43
2022-08-29T18:10:25.313Z,0.20
2022-08-29T18:12:51.948Z,0.32
2022-08-29T18:15:18.901Z,0.20
2022-08-29T18:17:45.565Z,0.52
2022-08-29T18:20:15.273Z,0.15
2022-08-29T18:22:43.248Z,0.20
2022-08-29T18:25:11.482Z,0.60
2022-08-29T18:27:43.684Z,0.40
2022-08-29T18:30:13.640Z,0.38
2022-08-29T18:32:41.315Z,0.30
2022-08-29T18:35:08.783Z,0.30
2022-08-29T18:37:35.991Z,0.30
2022-08-29T18:40:04.720Z,0.22
2022-08-29T18:42:40.454Z,0.30
2022-08-29T18:45:09.546Z,0.40
2022-08-29T18:47:36.506Z,0.50
2022-08-29T18:50:24.945Z,0.30
2022-08-29T18:52:52.467Z,0.40
2022-08-29T18:55:19.434Z,0.50
2022-08-29T18:57:48.314Z,0.17
2022-08-29T19:00:16.511Z,0.30
2022-08-29T19:02:43.516Z,0.40
2022-08-29T19:05:10.584Z,0.43
2022-08-29T19:07:37.294Z,0.57
2022-08-29T19:10:05.791Z,0.47
2022-08-29T19:12:32.429Z,0.50
2022-08-29T19:15:00.167Z,0.20
2022-08-29T19:17:26.920Z,0.30
2022-08-29T19:20:12.403Z,0.40
2022-08-29T19:25:08.958Z,0.30
2022-08-29T19:27:43.558Z,0.40
2022-08-29T19:30:13.464Z,0.43
2022-08-29T19:32:40.293Z,0.40
2022-08-29T19:35:09.359Z,0.45
2022-08-29T19:37:35.926Z,0.30
2022-08-29T19:40:04.797Z,0.40
2022-08-29T19:42:31.576Z,1.15
2022-08-29T19:44:58.253Z,0.40
2022-08-29T19:47:25.234Z,0.50
2022-08-29T19:49:52.410Z,0.32
2022-08-29T19:52:19.038Z,0.22
2022-08-29T19:54:46.414Z,0.40
2022-08-29T19:57:14.759Z,0.60
2022-08-29T19:59:42.296Z,0.43
2022-08-29T20:02:10.684Z,0.40
2022-08-29T20:04:38.402Z,0.47
2022-08-29T20:07:05.472Z,0.30
2022-08-29T20:09:32.111Z,0.50
2022-08-29T20:11:59.001Z,0.30
2022-08-29T20:14:25.560Z,0.52
2022-08-29T20:16:52.516Z,0.47
2022-08-29T20:19:21.402Z,0.85
2022-08-29T20:21:50.207Z,0.60
2022-08-29T20:24:17.242Z,0.47
2022-08-29T20:26:45.107Z,0.22
2022-08-29T20:29:12.483Z,0.63
2022-08-29T20:31:40.362Z,0.70
2022-08-29T20:34:07.352Z,0.60
2022-08-29T20:36:52.535Z,0.33
2022-08-29T20:39:21.134Z,0.45
2022-08-29T20:41:55.322Z,0.50
2022-08-29T20:44:30.347Z,0.63
2022-08-29T20:46:58.282Z,0.40
2022-08-29T20:49:26.649Z,0.57
2022-08-29T20:51:53.392Z,0.55
2022-08-29T20:54:23.462Z,0.50
2022-08-29T20:56:51.354Z,0.45
2022-08-29T20:59:18.182Z,0.45
2022-08-29T21:01:45.273Z,0.40
2022-08-29T21:04:31.390Z,0.63
2022-08-29T21:07:04.260Z,0.40
2022-08-29T21:09:31.539Z,0.55
2022-08-29T21:11:58.566Z,0.50
2022-08-29T21:14:27.275Z,0.50
2022-08-29T21:16:56.817Z,0.60
2022-08-29T21:19:27.319Z,0.45
2022-08-29T21:21:54.126Z,0.40
2022-08-29T21:24:21.019Z,0.82
2022-08-29T21:26:47.825Z,0.40
2022-08-29T21:29:14.825Z,0.32
2022-08-29T21:31:41.644Z,0.50
2022-08-29T21:34:11.170Z,0.50
2022-08-29T21:36:39.031Z,0.45
2022-08-29T21:39:08.808Z,0.90
2022-08-29T21:41:39.738Z,0.52
2022-08-29T21:44:07.153Z,0.70
2022-08-29T21:46:36.604Z,0.40
2022-08-29T21:49:06.121Z,0.50
2022-08-29T21:51:34.554Z,0.60
2022-08-29T21:54:02.325Z,0.50
2022-08-29T21:56:31.512Z,0.50
2022-08-29T21:58:59.768Z,0.50
2022-08-29T22:01:30.074Z,0.65
2022-08-29T22:03:58.676Z,0.55
2022-08-29T22:06:27.628Z,0.52
2022-08-29T22:08:54.947Z,0.55
2022-08-29T22:11:37.186Z,0.73
2022-08-29T22:14:06.304Z,0.80
2022-08-29T22:16:33.649Z,0.57
2022-08-29T22:19:14.767Z,0.40
2022-08-29T22:21:47.046Z,1.15
2022-08-29T22:24:15.318Z,0.35
2022-08-29T22:26:42.599Z,0.60
2022-08-29T22:29:11.615Z,0.45
2022-08-29T22:31:38.722Z,0.50
2022-08-29T22:34:05.598Z,0.60
2022-08-29T22:36:33.839Z,0.68
2022-08-29T22:39:00.443Z,0.60
2022-08-29T22:41:27.118Z,0.40
2022-08-29T22:44:31.691Z,0.73
2022-08-29T22:46:43.790Z,0.68
2022-08-29T22:49:10.595Z,0.60
2022-08-29T22:51:37.221Z,0.60
2022-08-29T22:54:22.370Z,0.60
2022-08-29T22:56:48.948Z,0.60
2022-08-29T22:59:15.535Z,0.73
2022-08-29T23:01:44.301Z,0.35
2022-08-29T23:04:12.180Z,0.32
2022-08-29T23:06:38.815Z,0.47
2022-08-29T23:09:06.158Z,0.35
2022-08-29T23:11:33.766Z,0.60
2022-08-29T23:14:00.655Z,0.50
2022-08-29T23:16:29.071Z,0.40
2022-08-29T23:18:55.697Z,0.40
2022-08-29T23:21:25.127Z,0.40
2022-08-29T23:23:51.841Z,0.57
2022-08-29T23:26:19.849Z,0.38
2022-08-29T23:28:47.482Z,0.45
2022-08-29T23:31:16.505Z,0.35
2022-08-29T23:33:43.315Z,0.30
2022-08-29T23:36:10.207Z,0.40
2022-08-29T23:38:38.127Z,0.30
2022-08-29T23:41:04.862Z,0.30
2022-08-29T23:43:36.230Z,0.35
2022-08-29T23:46:04.558Z,0.40
2022-08-29T23:48:32.029Z,0.60
2022-08-29T23:50:58.890Z,0.28
2022-08-29T23:53:26.168Z,0.30
2022-08-29T23:55:53.378Z,0.38
2022-08-29T23:58:20.021Z,0.40
